createdAt,value
2023-05-06T00:01:28.534Z,1017.3
2023-05-06T00:11:27.825Z,1017.2
2023-05-06T00:21:27.686Z,1017.2
2023-05-06T00:31:27.509Z,1017.3
2023-05-06T00:41:27.722Z,1017.3
2023-05-06T00:51:28.996Z,1017.2
2023-05-06T01:01:27.661Z,1017.3
2023-05-06T01:11:27.680Z,1017.2
2023-05-06T01:21:28.053Z,1017.1
2023-05-06T01:31:27.789Z,1017.2
2023-05-06T01:41:27.860Z,1017.1
2023-05-06T01:51:27.812Z,1017.2
2023-05-06T02:01:27.727Z,1017.2
2023-05-06T02:11:27.701Z,1017.0
2023-05-06T02:21:28.824Z,1017.2
2023-05-06T02:31:28.179Z,1017.2
2023-05-06T02:41:27.897Z,1017.2
2023-05-06T02:51:28.133Z,1017.1
2023-05-06T03:01:28.080Z,1017.2
2023-05-06T03:11:28.463Z,1017.2
2023-05-06T03:21:28.303Z,1017.2
2023-05-06T03:31:28.211Z,1017.2
2023-05-06T03:41:28.387Z,1017.1
2023-05-06T03:51:28.336Z,1017.1
2023-05-06T04:01:28.588Z,1017.1
2023-05-06T04:11:29.683Z,1017.1
2023-05-06T04:21:28.176Z,1017.0
2023-05-06T04:31:28.489Z,1017.1
2023-05-06T04:41:28.264Z,1017.2
2023-05-06T04:51:28.240Z,1017.3
2023-05-06T05:01:28.264Z,1017.3
2023-05-06T05:11:28.321Z,1017.4
2023-05-06T05:21:28.497Z,1017.4
2023-05-06T05:31:28.985Z,1017.5
2023-05-06T05:41:28.256Z,1017.6
2023-05-06T05:51:28.764Z,1017.6
2023-05-06T06:01:28.734Z,1017.7
2023-05-06T06:11:28.460Z,1017.8
2023-05-06T06:21:28.634Z,1017.8
2023-05-06T06:31:29.182Z,1017.7
2023-05-06T06:41:28.687Z,1017.8
2023-05-06T06:51:28.428Z,1017.8
2023-05-06T07:01:28.778Z,1017.9
2023-05-06T07:11:28.530Z,1017.9
2023-05-06T07:21:28.991Z,1018.0
2023-05-06T07:31:28.916Z,1018.0
2023-05-06T07:41:28.745Z,1017.9
2023-05-06T07:51:28.593Z,1018.0
2023-05-06T08:01:29.006Z,1018.0
2023-05-06T08:11:28.676Z,1018.1
2023-05-06T08:21:28.594Z,1018.1
2023-05-06T08:31:28.710Z,1018.2
2023-05-06T08:41:28.631Z,1018.1
2023-05-06T08:51:28.934Z,1018.2
2023-05-06T09:01:28.893Z,1018.2
2023-05-06T09:11:28.856Z,1018.1
2023-05-06T09:21:30.187Z,1018.0
2023-05-06T09:31:28.971Z,1017.9
2023-05-06T09:41:28.630Z,1017.9
2023-05-06T09:51:28.960Z,1017.8
2023-05-06T10:01:36.732Z,1017.7
2023-05-06T10:11:29.381Z,1017.7
2023-05-06T10:21:28.836Z,1017.6
2023-05-06T10:31:29.295Z,1017.5
2023-05-06T10:41:28.993Z,1017.5
2023-05-06T10:51:29.202Z,1017.5
2023-05-06T11:01:29.489Z,1017.5
2023-05-06T11:11:29.053Z,1017.3
2023-05-06T11:21:29.986Z,1017.3
2023-05-06T11:31:29.604Z,1017.2
2023-05-06T11:41:29.776Z,1017.2
2023-05-06T11:51:29.290Z,1017.1
2023-05-06T12:01:29.208Z,1017.1
2023-05-06T12:11:29.045Z,1017.1
2023-05-06T12:21:29.160Z,1017.1
2023-05-06T12:31:29.167Z,1017.0
2023-05-06T12:41:29.204Z,1016.9
2023-05-06T12:51:29.330Z,1017.0
2023-05-06T13:01:29.237Z,1016.9
2023-05-06T13:11:29.213Z,1016.8
2023-05-06T13:21:29.235Z,1016.8
2023-05-06T13:31:29.303Z,1016.8
2023-05-06T13:41:29.185Z,1016.8
2023-05-06T13:51:29.545Z,1016.7
2023-05-06T14:01:29.495Z,1016.7
2023-05-06T14:11:29.208Z,1016.6
2023-05-06T14:21:29.150Z,1016.5
2023-05-06T14:31:29.283Z,1016.4
2023-05-06T14:41:29.272Z,1016.3
2023-05-06T14:51:29.295Z,1016.3
2023-05-06T15:01:29.540Z,1016.1
2023-05-06T15:11:29.570Z,1016.1
2023-05-06T15:21:29.147Z,1016.1
2023-05-06T15:31:29.369Z,1016.1
2023-05-06T15:41:29.144Z,1016.1
2023-05-06T15:51:29.365Z,1016.2
2023-05-06T16:01:53.853Z,1016.2
2023-05-06T16:11:29.180Z,1016.2
2023-05-06T16:21:29.286Z,1016.3
2023-05-06T16:31:29.247Z,1016.3
2023-05-06T16:41:29.967Z,1016.2
2023-05-06T16:51:29.303Z,1016.3
2023-05-06T17:01:29.305Z,1016.3
2023-05-06T17:11:30.008Z,1016.3
2023-05-06T17:21:29.681Z,1016.3
2023-05-06T17:31:29.748Z,1016.3
2023-05-06T17:41:29.591Z,1016.3
2023-05-06T17:51:30.620Z,1016.4
2023-05-06T18:01:29.715Z,1016.2
2023-05-06T18:11:29.874Z,1016.2
2023-05-06T18:21:29.592Z,1016.2
2023-05-06T18:31:29.593Z,1016.3
2023-05-06T18:41:29.665Z,1016.7
2023-05-06T18:51:29.780Z,1017.0
2023-05-06T19:01:29.696Z,1017.1
2023-05-06T19:11:29.603Z,1017.3
2023-05-06T19:21:29.525Z,1017.2
2023-05-06T19:31:29.672Z,1017.2
2023-05-06T19:41:30.291Z,1017.1
2023-05-06T19:51:29.604Z,1017.0
2023-05-06T20:01:30.351Z,1017.1
2023-05-06T20:11:29.552Z,1017.1
2023-05-06T20:21:29.574Z,1017.1
2023-05-06T20:31:29.879Z,1017.1
2023-05-06T20:41:29.787Z,1017.2
2023-05-06T20:51:29.574Z,1017.4
2023-05-06T21:01:29.679Z,1017.5
2023-05-06T21:11:29.482Z,1017.6
2023-05-06T21:21:29.712Z,1017.6
2023-05-06T21:31:29.775Z,1017.5
2023-05-06T21:41:29.638Z,1017.5
2023-05-06T21:51:29.677Z,1017.4
2023-05-06T22:01:29.647Z,1017.5
2023-05-06T22:11:30.715Z,1017.4
2023-05-06T22:21:29.620Z,1017.2
2023-05-06T22:31:29.693Z,1017.3
2023-05-06T22:41:29.593Z,1017.2
2023-05-06T22:51:29.688Z,1017.3
2023-05-06T23:01:30.045Z,1017.2
2023-05-06T23:11:30.444Z,1017.2
2023-05-06T23:21:30.173Z,1017.3
2023-05-06T23:31:32.503Z,1017.3
2023-05-06T23:41:32.065Z,1017.3
2023-05-06T23:51:31.990Z,1017.4
